createdAt,value
2022-12-08T00:10:46.691Z,10.57
2022-12-08T00:25:34.307Z,9.23
2022-12-08T00:40:35.665Z,9.88
2022-12-08T00:55:37.008Z,10.32
2022-12-08T01:10:38.427Z,10.25
2022-12-08T01:25:39.809Z,11.07
2022-12-08T01:40:41.233Z,10.43
2022-12-08T01:55:42.766Z,11.95
2022-12-08T02:10:44.217Z,11.18
2022-12-08T02:25:45.613Z,9.82
2022-12-08T02:40:47.010Z,9.13
2022-12-08T02:55:48.497Z,8.68
2022-12-08T03:10:49.899Z,9.77
2022-12-08T03:25:51.282Z,8.45
2022-12-08T03:41:11.578Z,7.53
2022-12-08T03:56:12.948Z,7.53
2022-12-08T04:11:14.339Z,7.50
2022-12-08T04:26:15.798Z,6.80
2022-12-08T04:41:17.405Z,7.22
2022-12-08T04:56:18.819Z,7.82
2022-12-08T05:11:20.224Z,8.80
2022-12-08T05:26:21.697Z,8.68
2022-12-08T05:41:23.084Z,9.20
2022-12-08T05:56:24.468Z,9.40
2022-12-08T06:11:25.854Z,10.40
2022-12-08T06:26:27.325Z,11.45
2022-12-08T06:41:28.742Z,9.80
2022-12-08T06:56:30.201Z,10.00
2022-12-08T07:11:31.578Z,9.75
2022-12-08T07:26:32.987Z,9.63
2022-12-08T07:41:34.730Z,10.57
2022-12-08T07:56:36.107Z,12.05
2022-12-08T08:11:37.471Z,11.38
2022-12-08T08:26:39.919Z,9.82
2022-12-08T08:41:41.644Z,8.60
2022-12-08T08:56:43.133Z,7.05
2022-12-08T09:11:44.506Z,6.47
2022-12-08T09:26:46.838Z,5.97
2022-12-08T09:41:50.033Z,4.10
2022-12-08T09:56:51.416Z,4.90
2022-12-08T10:11:52.775Z,5.45
2022-12-08T10:26:54.183Z,6.22
2022-12-08T10:41:55.567Z,4.78
2022-12-08T10:56:57.003Z,3.42
2022-12-08T11:11:58.442Z,4.60
2022-12-08T11:26:59.851Z,4.20
2022-12-08T11:42:01.279Z,4.28
2022-12-08T11:57:02.697Z,4.30
2022-12-08T12:12:13.178Z,4.20
2022-12-08T12:42:17.162Z,4.07
2022-12-08T12:57:18.579Z,3.70
2022-12-08T13:12:19.950Z,4.35
2022-12-08T13:27:21.331Z,4.00
2022-12-08T13:42:22.785Z,4.60
2022-12-08T13:57:24.200Z,5.68
2022-12-08T14:12:25.619Z,6.18
2022-12-08T14:27:27.005Z,4.75
2022-12-08T14:42:28.381Z,4.50
2022-12-08T14:57:29.786Z,4.32
2022-12-08T15:12:31.898Z,3.90
2022-12-08T15:27:40.913Z,4.57
2022-12-08T15:42:48.839Z,4.95
2022-12-08T16:28:54.669Z,5.07
2022-12-08T16:43:56.262Z,4.90
2022-12-08T16:58:57.656Z,4.18
2022-12-08T17:13:59.074Z,4.57
2022-12-08T17:29:01.580Z,4.85
2022-12-08T17:44:03.459Z,4.50
2022-12-08T17:59:04.892Z,4.20
2022-12-08T18:14:09.958Z,5.55
2022-12-08T18:29:11.433Z,4.78
2022-12-08T18:44:12.829Z,8.00
2022-12-08T18:59:14.192Z,6.72
2022-12-08T19:14:15.618Z,6.97
2022-12-08T19:29:17.039Z,4.78
2022-12-08T19:44:37.351Z,4.72
2022-12-08T19:59:38.859Z,4.45
2022-12-08T20:14:45.527Z,9.82
2022-12-08T20:29:47.366Z,5.55
2022-12-08T20:44:48.856Z,6.88
2022-12-08T20:59:50.350Z,6.00
2022-12-08T21:14:51.816Z,6.20
2022-12-08T21:29:53.290Z,5.50
2022-12-08T21:44:54.658Z,6.18
2022-12-08T21:59:56.203Z,6.75
2022-12-08T22:15:00.425Z,6.93
2022-12-08T22:30:02.056Z,6.72
2022-12-08T22:45:03.785Z,6.00
2022-12-08T23:00:05.959Z,5.32
2022-12-08T23:15:07.815Z,5.28
2022-12-08T23:30:09.852Z,5.10
2022-12-08T23:45:11.624Z,5.55
